sensor_id;sensor_type;location;lat;lon;timestamp;P1;durP1;ratioP1;P2;durP2;ratioP2
27670;SDS011;15077;49.704;9.908;2023-07-20T00:02:01;2.08;;;1.23;;
27670;SDS011;15077;49.704;9.908;2023-07-20T00:04:27;1.95;;;1.42;;
27670;SDS011;15077;49.704;9.908;2023-07-20T00:06:53;2.70;;;1.10;;
27670;SDS011;15077;49.704;9.908;2023-07-20T00:09:19;2.75;;;1.63;;
27670;SDS011;15077;49.704;9.908;2023-07-20T00:11:48;3.05;;;1.38;;
27670;SDS011;15077;49.704;9.908;2023-07-20T00:14:16;3.63;;;1.70;;
27670;SDS011;15077;49.704;9.908;2023-07-20T00:16:45;3.20;;;1.65;;
27670;SDS011;15077;49.704;9.908;2023-07-20T00:19:11;2.20;;;1.30;;
27670;SDS011;15077;49.704;9.908;2023-07-20T00:21:38;2.40;;;1.40;;
27670;SDS011;15077;49.704;9.908;2023-07-20T00:24:07;2.20;;;1.48;;
27670;SDS011;15077;49.704;9.908;2023-07-20T00:26:34;2.60;;;1.50;;
27670;SDS011;15077;49.704;9.908;2023-07-20T00:29:01;2.78;;;1.23;;
27670;SDS011;15077;49.704;9.908;2023-07-20T00:31:29;3.10;;;1.17;;
27670;SDS011;15077;49.704;9.908;2023-07-20T00:33:54;2.58;;;1.67;;
27670;SDS011;15077;49.704;9.908;2023-07-20T00:36:20;2.42;;;1.52;;
27670;SDS011;15077;49.704;9.908;2023-07-20T00:38:46;5.40;;;2.00;;
27670;SDS011;15077;49.704;9.908;2023-07-20T00:41:12;3.90;;;1.70;;
27670;SDS011;15077;49.704;9.908;2023-07-20T00:43:38;2.00;;;1.27;;
27670;SDS011;15077;49.704;9.908;2023-07-20T00:46:04;2.58;;;1.52;;
27670;SDS011;15077;49.704;9.908;2023-07-20T00:48:30;2.55;;;1.50;;
27670;SDS011;15077;49.704;9.908;2023-07-20T00:50:58;3.97;;;2.00;;
27670;SDS011;15077;49.704;9.908;2023-07-20T00:53:25;2.20;;;1.30;;
27670;SDS011;15077;49.704;9.908;2023-07-20T00:55:51;3.30;;;1.50;;
27670;SDS011;15077;49.704;9.908;2023-07-20T00:58:21;1.70;;;1.40;;
27670;SDS011;15077;49.704;9.908;2023-07-20T01:00:48;4.32;;;1.65;;
27670;SDS011;15077;49.704;9.908;2023-07-20T01:03:14;2.50;;;1.40;;
27670;SDS011;15077;49.704;9.908;2023-07-20T01:06:02;2.63;;;1.63;;
27670;SDS011;15077;49.704;9.908;2023-07-20T01:09:18;3.80;;;1.75;;
27670;SDS011;15077;49.704;9.908;2023-07-20T01:12:11;1.63;;;1.15;;
27670;SDS011;15077;49.704;9.908;2023-07-20T01:15:10;2.55;;;1.17;;
27670;SDS011;15077;49.704;9.908;2023-07-20T01:17:37;2.20;;;1.38;;
27670;SDS011;15077;49.704;9.908;2023-07-20T01:20:03;3.13;;;1.45;;
27670;SDS011;15077;49.704;9.908;2023-07-20T01:30:52;2.20;;;1.55;;
27670;SDS011;15077;49.704;9.908;2023-07-20T01:33:39;1.80;;;1.15;;
27670;SDS011;15077;49.704;9.908;2023-07-20T01:36:07;5.32;;;1.63;;
27670;SDS011;15077;49.704;9.908;2023-07-20T01:38:36;2.33;;;1.55;;
27670;SDS011;15077;49.704;9.908;2023-07-20T01:41:02;2.58;;;1.40;;
27670;SDS011;15077;49.704;9.908;2023-07-20T01:43:29;3.42;;;1.55;;
27670;SDS011;15077;49.704;9.908;2023-07-20T01:45:54;1.38;;;0.90;;
27670;SDS011;15077;49.704;9.908;2023-07-20T01:48:20;1.63;;;1.00;;
27670;SDS011;15077;49.704;9.908;2023-07-20T01:50:46;2.08;;;1.35;;
27670;SDS011;15077;49.704;9.908;2023-07-20T01:53:12;1.77;;;1.20;;
27670;SDS011;15077;49.704;9.908;2023-07-20T01:55:38;3.03;;;1.27;;
27670;SDS011;15077;49.704;9.908;2023-07-20T01:58:04;4.32;;;1.20;;
27670;SDS011;15077;49.704;9.908;2023-07-20T02:00:31;1.58;;;0.95;;
27670;SDS011;15077;49.704;9.908;2023-07-20T02:02:56;3.85;;;1.17;;
27670;SDS011;15077;49.704;9.908;2023-07-20T02:05:22;3.08;;;1.13;;
27670;SDS011;15077;49.704;9.908;2023-07-20T02:07:48;4.78;;;1.55;;
27670;SDS011;15077;49.704;9.908;2023-07-20T02:10:14;3.28;;;2.03;;
27670;SDS011;15077;49.704;9.908;2023-07-20T02:12:39;3.20;;;1.40;;
27670;SDS011;15077;49.704;9.908;2023-07-20T02:15:05;2.22;;;1.35;;
27670;SDS011;15077;49.704;9.908;2023-07-20T02:17:33;2.65;;;1.35;;
27670;SDS011;15077;49.704;9.908;2023-07-20T02:19:59;2.63;;;1.13;;
27670;SDS011;15077;49.704;9.908;2023-07-20T02:22:25;2.13;;;0.88;;
27670;SDS011;15077;49.704;9.908;2023-07-20T02:24:50;3.33;;;1.40;;
27670;SDS011;15077;49.704;9.908;2023-07-20T02:27:16;2.33;;;1.50;;
27670;SDS011;15077;49.704;9.908;2023-07-20T02:29:42;1.67;;;0.90;;
27670;SDS011;15077;49.704;9.908;2023-07-20T02:32:08;2.33;;;1.52;;
27670;SDS011;15077;49.704;9.908;2023-07-20T02:34:37;2.08;;;1.02;;
27670;SDS011;15077;49.704;9.908;2023-07-20T02:37:03;1.67;;;0.90;;
27670;SDS011;15077;49.704;9.908;2023-07-20T02:39:30;1.60;;;1.20;;
27670;SDS011;15077;49.704;9.908;2023-07-20T02:41:55;3.53;;;1.48;;
27670;SDS011;15077;49.704;9.908;2023-07-20T02:44:21;2.65;;;1.50;;
27670;SDS011;15077;49.704;9.908;2023-07-20T02:46:48;2.00;;;1.20;;
27670;SDS011;15077;49.704;9.908;2023-07-20T02:49:17;2.55;;;1.10;;
27670;SDS011;15077;49.704;9.908;2023-07-20T02:51:43;3.35;;;1.30;;
27670;SDS011;15077;49.704;9.908;2023-07-20T02:54:09;3.00;;;1.60;;
27670;SDS011;15077;49.704;9.908;2023-07-20T02:56:35;2.10;;;1.42;;
27670;SDS011;15077;49.704;9.908;2023-07-20T02:59:01;3.08;;;1.30;;
27670;SDS011;15077;49.704;9.908;2023-07-20T03:01:27;2.30;;;1.02;;
27670;SDS011;15077;49.704;9.908;2023-07-20T03:03:56;2.17;;;0.90;;
27670;SDS011;15077;49.704;9.908;2023-07-20T03:06:22;2.13;;;0.82;;
27670;SDS011;15077;49.704;9.908;2023-07-20T03:08:48;1.77;;;0.80;;
27670;SDS011;15077;49.704;9.908;2023-07-20T03:11:17;2.25;;;1.23;;
27670;SDS011;15077;49.704;9.908;2023-07-20T03:13:44;1.88;;;1.23;;
27670;SDS011;15077;49.704;9.908;2023-07-20T03:16:13;1.55;;;1.02;;
27670;SDS011;15077;49.704;9.908;2023-07-20T03:18:44;3.95;;;1.98;;
27670;SDS011;15077;49.704;9.908;2023-07-20T03:21:10;1.88;;;1.10;;
27670;SDS011;15077;49.704;9.908;2023-07-20T03:23:37;2.40;;;1.15;;
27670;SDS011;15077;49.704;9.908;2023-07-20T03:26:06;1.42;;;1.00;;
27670;SDS011;15077;49.704;9.908;2023-07-20T03:28:36;1.38;;;0.82;;
27670;SDS011;15077;49.704;9.908;2023-07-20T03:31:05;2.13;;;1.30;;
27670;SDS011;15077;49.704;9.908;2023-07-20T03:33:31;4.75;;;1.13;;
27670;SDS011;15077;49.704;9.908;2023-07-20T03:35:58;5.18;;;1.33;;
27670;SDS011;15077;49.704;9.908;2023-07-20T03:38:25;2.30;;;1.20;;
27670;SDS011;15077;49.704;9.908;2023-07-20T03:43:23;2.33;;;1.08;;
27670;SDS011;15077;49.704;9.908;2023-07-20T03:45:52;2.17;;;1.20;;
27670;SDS011;15077;49.704;9.908;2023-07-20T03:48:19;1.98;;;1.35;;
27670;SDS011;15077;49.704;9.908;2023-07-20T03:50:48;2.10;;;1.30;;
27670;SDS011;15077;49.704;9.908;2023-07-20T03:53:15;1.70;;;1.17;;
27670;SDS011;15077;49.704;9.908;2023-07-20T03:55:49;5.18;;;1.30;;
27670;SDS011;15077;49.704;9.908;2023-07-20T03:58:16;2.17;;;1.10;;
27670;SDS011;15077;49.704;9.908;2023-07-20T04:00:47;2.92;;;1.00;;
27670;SDS011;15077;49.704;9.908;2023-07-20T04:03:18;1.85;;;1.23;;
27670;SDS011;15077;49.704;9.908;2023-07-20T04:05:45;2.85;;;1.30;;
27670;SDS011;15077;49.704;9.908;2023-07-20T04:08:11;2.03;;;1.00;;
27670;SDS011;15077;49.704;9.908;2023-07-20T04:10:43;2.47;;;1.30;;
27670;SDS011;15077;49.704;9.908;2023-07-20T04:13:09;1.55;;;1.08;;
27670;SDS011;15077;49.704;9.908;2023-07-20T04:15:36;2.22;;;1.50;;
27670;SDS011;15077;49.704;9.908;2023-07-20T04:18:02;2.15;;;1.02;;
27670;SDS011;15077;49.704;9.908;2023-07-20T04:20:27;2.33;;;1.20;;
27670;SDS011;15077;49.704;9.908;2023-07-20T04:22:54;3.25;;;1.40;;
27670;SDS011;15077;49.704;9.908;2023-07-20T04:25:21;1.73;;;1.17;;
27670;SDS011;15077;49.704;9.908;2023-07-20T04:27:47;3.28;;;1.27;;
27670;SDS011;15077;49.704;9.908;2023-07-20T04:30:13;3.08;;;1.30;;
27670;SDS011;15077;49.704;9.908;2023-07-20T04:32:42;1.77;;;1.23;;
27670;SDS011;15077;49.704;9.908;2023-07-20T04:35:10;2.10;;;1.58;;
27670;SDS011;15077;49.704;9.908;2023-07-20T04:37:36;2.70;;;1.70;;
27670;SDS011;15077;49.704;9.908;2023-07-20T04:40:02;5.82;;;1.45;;
27670;SDS011;15077;49.704;9.908;2023-07-20T04:42:28;3.58;;;1.60;;
27670;SDS011;15077;49.704;9.908;2023-07-20T04:44:54;2.38;;;1.10;;
27670;SDS011;15077;49.704;9.908;2023-07-20T04:47:20;2.28;;;1.30;;
27670;SDS011;15077;49.704;9.908;2023-07-20T04:49:45;1.90;;;1.23;;
27670;SDS011;15077;49.704;9.908;2023-07-20T04:52:11;3.50;;;1.30;;
27670;SDS011;15077;49.704;9.908;2023-07-20T04:54:37;2.28;;;1.30;;
27670;SDS011;15077;49.704;9.908;2023-07-20T04:57:02;2.65;;;1.70;;
27670;SDS011;15077;49.704;9.908;2023-07-20T04:59:35;4.90;;;1.85;;
27670;SDS011;15077;49.704;9.908;2023-07-20T05:02:01;1.83;;;1.15;;
27670;SDS011;15077;49.704;9.908;2023-07-20T05:04:27;3.20;;;1.60;;
27670;SDS011;15077;49.704;9.908;2023-07-20T05:06:52;3.80;;;1.70;;
27670;SDS011;15077;49.704;9.908;2023-07-20T05:09:18;3.45;;;1.80;;
27670;SDS011;15077;49.704;9.908;2023-07-20T05:11:44;4.70;;;1.70;;
27670;SDS011;15077;49.704;9.908;2023-07-20T05:14:12;1.95;;;1.25;;
27670;SDS011;15077;49.704;9.908;2023-07-20T05:16:38;3.50;;;1.65;;
27670;SDS011;15077;49.704;9.908;2023-07-20T05:19:03;3.65;;;1.50;;
27670;SDS011;15077;49.704;9.908;2023-07-20T05:21:29;3.40;;;1.88;;
27670;SDS011;15077;49.704;9.908;2023-07-20T05:23:55;4.00;;;1.70;;
27670;SDS011;15077;49.704;9.908;2023-07-20T05:26:20;3.42;;;2.03;;
27670;SDS011;15077;49.704;9.908;2023-07-20T05:28:46;5.03;;;2.45;;
27670;SDS011;15077;49.704;9.908;2023-07-20T05:31:12;3.00;;;1.83;;
27670;SDS011;15077;49.704;9.908;2023-07-20T05:33:37;4.43;;;1.92;;
27670;SDS011;15077;49.704;9.908;2023-07-20T05:36:04;2.72;;;1.58;;
27670;SDS011;15077;49.704;9.908;2023-07-20T05:38:30;4.70;;;1.60;;
27670;SDS011;15077;49.704;9.908;2023-07-20T05:40:58;4.47;;;2.28;;
27670;SDS011;15077;49.704;9.908;2023-07-20T05:43:28;2.63;;;1.55;;
27670;SDS011;15077;49.704;9.908;2023-07-20T05:45:55;4.70;;;2.53;;
27670;SDS011;15077;49.704;9.908;2023-07-20T05:48:20;3.13;;;1.63;;
27670;SDS011;15077;49.704;9.908;2023-07-20T05:50:46;3.78;;;2.30;;
27670;SDS011;15077;49.704;9.908;2023-07-20T05:53:12;6.43;;;2.00;;
27670;SDS011;15077;49.704;9.908;2023-07-20T05:55:37;2.80;;;1.80;;
27670;SDS011;15077;49.704;9.908;2023-07-20T05:58:04;5.13;;;1.88;;
27670;SDS011;15077;49.704;9.908;2023-07-20T06:00:30;3.80;;;1.77;;
27670;SDS011;15077;49.704;9.908;2023-07-20T06:02:56;3.50;;;1.50;;
27670;SDS011;15077;49.704;9.908;2023-07-20T06:05:22;2.65;;;1.45;;
27670;SDS011;15077;49.704;9.908;2023-07-20T06:07:48;2.80;;;1.55;;
27670;SDS011;15077;49.704;9.908;2023-07-20T06:10:15;3.10;;;2.00;;
27670;SDS011;15077;49.704;9.908;2023-07-20T06:12:41;2.83;;;1.52;;
27670;SDS011;15077;49.704;9.908;2023-07-20T06:15:16;2.08;;;1.55;;
27670;SDS011;15077;49.704;9.908;2023-07-20T06:17:53;3.03;;;1.70;;
27670;SDS011;15077;49.704;9.908;2023-07-20T06:20:21;4.18;;;1.52;;
27670;SDS011;15077;49.704;9.908;2023-07-20T06:22:50;3.45;;;1.65;;
27670;SDS011;15077;49.704;9.908;2023-07-20T06:25:16;5.65;;;2.35;;
27670;SDS011;15077;49.704;9.908;2023-07-20T06:27:42;2.85;;;1.98;;
27670;SDS011;15077;49.704;9.908;2023-07-20T06:30:09;3.22;;;2.22;;
27670;SDS011;15077;49.704;9.908;2023-07-20T06:32:35;3.97;;;2.15;;
27670;SDS011;15077;49.704;9.908;2023-07-20T06:35:01;2.10;;;1.50;;
27670;SDS011;15077;49.704;9.908;2023-07-20T06:37:27;3.53;;;1.83;;
27670;SDS011;15077;49.704;9.908;2023-07-20T06:39:52;5.18;;;2.67;;
27670;SDS011;15077;49.704;9.908;2023-07-20T06:42:18;3.42;;;2.60;;
27670;SDS011;15077;49.704;9.908;2023-07-20T06:44:44;4.72;;;2.15;;
27670;SDS011;15077;49.704;9.908;2023-07-20T06:47:10;4.18;;;2.10;;
27670;SDS011;15077;49.704;9.908;2023-07-20T06:49:36;6.43;;;2.67;;
27670;SDS011;15077;49.704;9.908;2023-07-20T06:52:02;6.03;;;2.60;;
27670;SDS011;15077;49.704;9.908;2023-07-20T06:54:27;5.22;;;2.08;;
27670;SDS011;15077;49.704;9.908;2023-07-20T06:56:53;3.95;;;2.30;;
27670;SDS011;15077;49.704;9.908;2023-07-20T06:59:22;4.63;;;2.38;;
27670;SDS011;15077;49.704;9.908;2023-07-20T07:01:49;4.13;;;2.08;;
27670;SDS011;15077;49.704;9.908;2023-07-20T07:04:15;3.97;;;1.70;;
27670;SDS011;15077;49.704;9.908;2023-07-20T07:06:41;2.97;;;1.50;;
27670;SDS011;15077;49.704;9.908;2023-07-20T07:09:07;3.28;;;1.95;;
27670;SDS011;15077;49.704;9.908;2023-07-20T07:11:33;4.35;;;1.55;;
27670;SDS011;15077;49.704;9.908;2023-07-20T07:13:59;3.92;;;2.08;;
27670;SDS011;15077;49.704;9.908;2023-07-20T07:16:25;3.20;;;1.88;;
27670;SDS011;15077;49.704;9.908;2023-07-20T07:18:51;2.22;;;1.70;;
27670;SDS011;15077;49.704;9.908;2023-07-20T07:21:17;3.97;;;2.40;;
27670;SDS011;15077;49.704;9.908;2023-07-20T07:23:43;4.95;;;3.35;;
27670;SDS011;15077;49.704;9.908;2023-07-20T07:26:11;4.07;;;1.88;;
27670;SDS011;15077;49.704;9.908;2023-07-20T07:28:37;5.85;;;2.58;;
27670;SDS011;15077;49.704;9.908;2023-07-20T07:31:06;2.80;;;1.90;;
27670;SDS011;15077;49.704;9.908;2023-07-20T07:33:32;4.25;;;2.25;;
27670;SDS011;15077;49.704;9.908;2023-07-20T07:35:59;6.18;;;3.08;;
27670;SDS011;15077;49.704;9.908;2023-07-20T07:38:25;4.38;;;2.35;;
27670;SDS011;15077;49.704;9.908;2023-07-20T07:40:50;2.20;;;1.58;;
27670;SDS011;15077;49.704;9.908;2023-07-20T07:43:16;2.20;;;1.83;;
27670;SDS011;15077;49.704;9.908;2023-07-20T07:45:42;3.67;;;1.75;;
27670;SDS011;15077;49.704;9.908;2023-07-20T07:48:08;3.72;;;2.15;;
27670;SDS011;15077;49.704;9.908;2023-07-20T07:50:36;5.13;;;2.92;;
27670;SDS011;15077;49.704;9.908;2023-07-20T07:53:04;7.45;;;2.03;;
27670;SDS011;15077;49.704;9.908;2023-07-20T07:55:30;5.88;;;2.13;;
27670;SDS011;15077;49.704;9.908;2023-07-20T07:58:01;3.53;;;1.70;;
27670;SDS011;15077;49.704;9.908;2023-07-20T08:00:27;2.88;;;1.90;;
27670;SDS011;15077;49.704;9.908;2023-07-20T08:02:53;2.90;;;1.73;;
27670;SDS011;15077;49.704;9.908;2023-07-20T08:05:25;2.42;;;1.70;;
27670;SDS011;15077;49.704;9.908;2023-07-20T08:07:51;3.20;;;1.42;;
27670;SDS011;15077;49.704;9.908;2023-07-20T08:10:18;2.42;;;1.60;;
27670;SDS011;15077;49.704;9.908;2023-07-20T08:12:44;2.97;;;1.42;;
27670;SDS011;15077;49.704;9.908;2023-07-20T08:15:13;2.45;;;1.02;;
27670;SDS011;15077;49.704;9.908;2023-07-20T08:17:40;3.63;;;1.38;;
27670;SDS011;15077;49.704;9.908;2023-07-20T08:20:08;2.45;;;0.98;;
27670;SDS011;15077;49.704;9.908;2023-07-20T08:22:38;2.28;;;1.13;;
27670;SDS011;15077;49.704;9.908;2023-07-20T08:25:05;3.53;;;1.50;;
27670;SDS011;15077;49.704;9.908;2023-07-20T08:27:31;3.33;;;1.58;;
27670;SDS011;15077;49.704;9.908;2023-07-20T08:29:57;3.42;;;1.40;;
27670;SDS011;15077;49.704;9.908;2023-07-20T08:32:23;2.67;;;1.17;;
27670;SDS011;15077;49.704;9.908;2023-07-20T08:34:49;2.67;;;1.20;;
27670;SDS011;15077;49.704;9.908;2023-07-20T08:37:14;2.47;;;1.20;;
27670;SDS011;15077;49.704;9.908;2023-07-20T08:39:40;3.60;;;1.38;;
27670;SDS011;15077;49.704;9.908;2023-07-20T08:42:06;2.58;;;1.38;;
27670;SDS011;15077;49.704;9.908;2023-07-20T08:44:33;3.30;;;1.23;;
27670;SDS011;15077;49.704;9.908;2023-07-20T08:47:02;1.45;;;1.20;;
27670;SDS011;15077;49.704;9.908;2023-07-20T08:49:32;3.28;;;1.08;;
27670;SDS011;15077;49.704;9.908;2023-07-20T08:51:59;2.33;;;1.70;;
27670;SDS011;15077;49.704;9.908;2023-07-20T08:54:29;2.70;;;1.20;;
27670;SDS011;15077;49.704;9.908;2023-07-20T08:57:02;3.42;;;1.40;;
27670;SDS011;15077;49.704;9.908;2023-07-20T08:59:30;1.75;;;1.15;;
27670;SDS011;15077;49.704;9.908;2023-07-20T09:01:57;2.20;;;1.20;;
27670;SDS011;15077;49.704;9.908;2023-07-20T09:04:29;1.98;;;0.88;;
27670;SDS011;15077;49.704;9.908;2023-07-20T09:06:54;3.15;;;1.10;;
27670;SDS011;15077;49.704;9.908;2023-07-20T09:09:22;2.05;;;1.17;;
27670;SDS011;15077;49.704;9.908;2023-07-20T09:11:49;1.58;;;0.80;;
27670;SDS011;15077;49.704;9.908;2023-07-20T09:14:15;2.13;;;1.35;;
27670;SDS011;15077;49.704;9.908;2023-07-20T09:16:52;2.70;;;1.95;;
27670;SDS011;15077;49.704;9.908;2023-07-20T09:19:20;1.67;;;1.35;;
27670;SDS011;15077;49.704;9.908;2023-07-20T09:21:51;2.80;;;1.23;;
27670;SDS011;15077;49.704;9.908;2023-07-20T09:24:18;2.63;;;1.45;;
27670;SDS011;15077;49.704;9.908;2023-07-20T09:26:45;2.17;;;1.38;;
27670;SDS011;15077;49.704;9.908;2023-07-20T09:29:19;1.90;;;0.90;;
27670;SDS011;15077;49.704;9.908;2023-07-20T09:32:01;3.35;;;1.60;;
27670;SDS011;15077;49.704;9.908;2023-07-20T09:34:32;2.28;;;1.50;;
27670;SDS011;15077;49.704;9.908;2023-07-20T09:36:58;2.05;;;1.10;;
27670;SDS011;15077;49.704;9.908;2023-07-20T09:39:25;2.00;;;1.25;;
27670;SDS011;15077;49.704;9.908;2023-07-20T09:41:52;2.20;;;1.40;;
27670;SDS011;15077;49.704;9.908;2023-07-20T09:44:18;2.28;;;1.23;;
27670;SDS011;15077;49.704;9.908;2023-07-20T09:46:45;1.67;;;1.13;;
27670;SDS011;15077;49.704;9.908;2023-07-20T09:49:13;1.92;;;1.30;;
27670;SDS011;15077;49.704;9.908;2023-07-20T09:51:39;1.83;;;1.25;;
27670;SDS011;15077;49.704;9.908;2023-07-20T09:54:07;2.20;;;1.20;;
27670;SDS011;15077;49.704;9.908;2023-07-20T09:56:33;1.80;;;1.23;;
27670;SDS011;15077;49.704;9.908;2023-07-20T09:59:01;2.13;;;1.05;;
27670;SDS011;15077;49.704;9.908;2023-07-20T10:01:26;3.03;;;1.48;;
27670;SDS011;15077;49.704;9.908;2023-07-20T10:03:56;2.58;;;1.40;;
27670;SDS011;15077;49.704;9.908;2023-07-20T10:06:26;2.30;;;1.30;;
27670;SDS011;15077;49.704;9.908;2023-07-20T10:08:59;2.00;;;1.00;;
27670;SDS011;15077;49.704;9.908;2023-07-20T10:11:29;1.63;;;1.25;;
27670;SDS011;15077;49.704;9.908;2023-07-20T10:14:00;2.00;;;1.48;;
27670;SDS011;15077;49.704;9.908;2023-07-20T10:16:37;2.10;;;1.20;;
27670;SDS011;15077;49.704;9.908;2023-07-20T10:21:56;1.73;;;1.23;;
27670;SDS011;15077;49.704;9.908;2023-07-20T10:24:28;1.65;;;1.35;;
27670;SDS011;15077;49.704;9.908;2023-07-20T10:26:57;1.80;;;1.05;;
27670;SDS011;15077;49.704;9.908;2023-07-20T10:29:23;1.50;;;0.85;;
27670;SDS011;15077;49.704;9.908;2023-07-20T10:31:52;1.27;;;1.13;;
27670;SDS011;15077;49.704;9.908;2023-07-20T10:34:20;3.00;;;1.08;;
27670;SDS011;15077;49.704;9.908;2023-07-20T10:36:47;2.00;;;1.30;;
27670;SDS011;15077;49.704;9.908;2023-07-20T10:39:22;2.75;;;1.30;;
27670;SDS011;15077;49.704;9.908;2023-07-20T10:41:49;2.10;;;1.30;;
27670;SDS011;15077;49.704;9.908;2023-07-20T10:44:28;2.03;;;1.15;;
27670;SDS011;15077;49.704;9.908;2023-07-20T10:46:59;1.60;;;0.90;;
27670;SDS011;15077;49.704;9.908;2023-07-20T10:49:34;2.42;;;1.38;;
27670;SDS011;15077;49.704;9.908;2023-07-20T10:52:04;2.53;;;1.23;;
27670;SDS011;15077;49.704;9.908;2023-07-20T10:54:36;1.90;;;1.33;;
27670;SDS011;15077;49.704;9.908;2023-07-20T10:57:21;3.05;;;1.20;;
27670;SDS011;15077;49.704;9.908;2023-07-20T11:00:14;1.35;;;0.98;;
27670;SDS011;15077;49.704;9.908;2023-07-20T11:02:45;2.08;;;1.00;;
27670;SDS011;15077;49.704;9.908;2023-07-20T11:05:57;2.00;;;1.20;;
27670;SDS011;15077;49.704;9.908;2023-07-20T11:08:06;1.70;;;0.90;;
27670;SDS011;15077;49.704;9.908;2023-07-20T11:10:36;1.08;;;0.88;;
27670;SDS011;15077;49.704;9.908;2023-07-20T11:13:18;1.63;;;1.10;;
27670;SDS011;15077;49.704;9.908;2023-07-20T11:18:25;2.60;;;1.13;;
27670;SDS011;15077;49.704;9.908;2023-07-20T11:20:51;1.58;;;0.70;;
27670;SDS011;15077;49.704;9.908;2023-07-20T11:23:19;1.83;;;1.17;;
27670;SDS011;15077;49.704;9.908;2023-07-20T11:25:46;2.67;;;1.10;;
27670;SDS011;15077;49.704;9.908;2023-07-20T11:28:11;1.90;;;1.30;;
27670;SDS011;15077;49.704;9.908;2023-07-20T11:30:38;1.10;;;0.65;;
27670;SDS011;15077;49.704;9.908;2023-07-20T11:33:04;2.22;;;1.10;;
27670;SDS011;15077;49.704;9.908;2023-07-20T11:35:41;1.20;;;0.77;;
27670;SDS011;15077;49.704;9.908;2023-07-20T11:38:09;1.65;;;0.90;;
27670;SDS011;15077;49.704;9.908;2023-07-20T11:40:36;2.00;;;1.17;;
27670;SDS011;15077;49.704;9.908;2023-07-20T11:43:09;2.00;;;0.90;;
27670;SDS011;15077;49.704;9.908;2023-07-20T11:45:38;1.55;;;1.10;;
27670;SDS011;15077;49.704;9.908;2023-07-20T11:48:04;2.78;;;1.20;;
27670;SDS011;15077;49.704;9.908;2023-07-20T11:50:30;1.98;;;1.15;;
27670;SDS011;15077;49.704;9.908;2023-07-20T11:52:56;1.55;;;0.88;;
27670;SDS011;15077;49.704;9.908;2023-07-20T11:55:22;1.48;;;0.90;;
27670;SDS011;15077;49.704;9.908;2023-07-20T12:00:47;2.42;;;0.90;;
27670;SDS011;15077;49.704;9.908;2023-07-20T12:03:13;3.67;;;1.02;;
27670;SDS011;15077;49.704;9.908;2023-07-20T12:05:39;2.22;;;0.98;;
27670;SDS011;15077;49.704;9.908;2023-07-20T12:08:05;1.83;;;1.08;;
27670;SDS011;15077;49.704;9.908;2023-07-20T12:10:31;1.60;;;0.90;;
27670;SDS011;15077;49.704;9.908;2023-07-20T12:13:03;1.10;;;0.70;;
27670;SDS011;15077;49.704;9.908;2023-07-20T12:15:29;2.13;;;0.93;;
27670;SDS011;15077;49.704;9.908;2023-07-20T12:17:57;1.77;;;0.90;;
27670;SDS011;15077;49.704;9.908;2023-07-20T12:23:04;1.27;;;0.80;;
27670;SDS011;15077;49.704;9.908;2023-07-20T12:25:41;1.10;;;0.63;;
27670;SDS011;15077;49.704;9.908;2023-07-20T12:28:13;1.75;;;1.10;;
27670;SDS011;15077;49.704;9.908;2023-07-20T12:30:42;1.25;;;0.80;;
27670;SDS011;15077;49.704;9.908;2023-07-20T12:33:09;3.45;;;0.90;;
27670;SDS011;15077;49.704;9.908;2023-07-20T12:35:37;2.33;;;1.05;;
27670;SDS011;15077;49.704;9.908;2023-07-20T12:38:02;1.58;;;0.95;;
27670;SDS011;15077;49.704;9.908;2023-07-20T12:40:28;1.05;;;0.70;;
27670;SDS011;15077;49.704;9.908;2023-07-20T12:42:55;1.05;;;0.70;;
27670;SDS011;15077;49.704;9.908;2023-07-20T12:45:22;1.35;;;0.70;;
27670;SDS011;15077;49.704;9.908;2023-07-20T12:47:48;1.20;;;0.70;;
27670;SDS011;15077;49.704;9.908;2023-07-20T12:50:14;1.60;;;0.98;;
27670;SDS011;15077;49.704;9.908;2023-07-20T12:52:40;1.42;;;0.70;;
27670;SDS011;15077;49.704;9.908;2023-07-20T12:55:06;1.20;;;0.80;;
27670;SDS011;15077;49.704;9.908;2023-07-20T12:57:34;1.70;;;0.95;;
27670;SDS011;15077;49.704;9.908;2023-07-20T13:00:02;1.25;;;0.90;;
27670;SDS011;15077;49.704;9.908;2023-07-20T13:02:31;1.13;;;0.77;;
27670;SDS011;15077;49.704;9.908;2023-07-20T13:04:58;1.17;;;0.57;;
27670;SDS011;15077;49.704;9.908;2023-07-20T13:07:31;2.28;;;1.25;;
27670;SDS011;15077;49.704;9.908;2023-07-20T13:09:59;1.75;;;0.80;;
27670;SDS011;15077;49.704;9.908;2023-07-20T13:12:27;2.03;;;0.80;;
27670;SDS011;15077;49.704;9.908;2023-07-20T13:14:55;2.15;;;0.85;;
27670;SDS011;15077;49.704;9.908;2023-07-20T13:17:22;1.45;;;0.70;;
27670;SDS011;15077;49.704;9.908;2023-07-20T13:19:48;1.05;;;0.75;;
27670;SDS011;15077;49.704;9.908;2023-07-20T13:22:14;1.48;;;0.85;;
27670;SDS011;15077;49.704;9.908;2023-07-20T13:24:40;1.17;;;0.88;;
27670;SDS011;15077;49.704;9.908;2023-07-20T13:27:06;1.30;;;0.70;;
27670;SDS011;15077;49.704;9.908;2023-07-20T13:29:32;1.35;;;0.63;;
27670;SDS011;15077;49.704;9.908;2023-07-20T13:31:58;1.73;;;0.80;;
27670;SDS011;15077;49.704;9.908;2023-07-20T13:34:25;1.30;;;0.80;;
27670;SDS011;15077;49.704;9.908;2023-07-20T13:36:51;1.70;;;0.82;;
27670;SDS011;15077;49.704;9.908;2023-07-20T13:39:17;2.05;;;0.60;;
27670;SDS011;15077;49.704;9.908;2023-07-20T13:41:44;0.90;;;0.60;;
27670;SDS011;15077;49.704;9.908;2023-07-20T13:44:10;1.90;;;0.60;;
27670;SDS011;15077;49.704;9.908;2023-07-20T13:46:36;1.38;;;0.90;;
27670;SDS011;15077;49.704;9.908;2023-07-20T13:49:02;1.65;;;0.90;;
27670;SDS011;15077;49.704;9.908;2023-07-20T13:51:28;0.80;;;0.60;;
27670;SDS011;15077;49.704;9.908;2023-07-20T13:53:53;1.08;;;0.80;;
27670;SDS011;15077;49.704;9.908;2023-07-20T13:56:19;1.52;;;0.90;;
27670;SDS011;15077;49.704;9.908;2023-07-20T13:58:45;1.20;;;0.88;;
27670;SDS011;15077;49.704;9.908;2023-07-20T14:01:11;1.38;;;0.65;;
27670;SDS011;15077;49.704;9.908;2023-07-20T14:03:37;1.23;;;0.82;;
27670;SDS011;15077;49.704;9.908;2023-07-20T14:06:02;0.90;;;0.70;;
27670;SDS011;15077;49.704;9.908;2023-07-20T14:08:28;1.52;;;0.82;;
27670;SDS011;15077;49.704;9.908;2023-07-20T14:10:55;1.75;;;1.05;;
27670;SDS011;15077;49.704;9.908;2023-07-20T14:13:20;1.90;;;1.10;;
27670;SDS011;15077;49.704;9.908;2023-07-20T14:15:46;1.58;;;1.00;;
27670;SDS011;15077;49.704;9.908;2023-07-20T14:18:12;1.80;;;1.00;;
27670;SDS011;15077;49.704;9.908;2023-07-20T14:20:38;0.88;;;0.60;;
27670;SDS011;15077;49.704;9.908;2023-07-20T14:23:03;1.05;;;0.55;;
27670;SDS011;15077;49.704;9.908;2023-07-20T14:25:29;1.52;;;0.60;;
27670;SDS011;15077;49.704;9.908;2023-07-20T14:27:55;1.13;;;0.80;;
27670;SDS011;15077;49.704;9.908;2023-07-20T14:30:20;1.35;;;1.00;;
27670;SDS011;15077;49.704;9.908;2023-07-20T14:32:46;1.42;;;0.82;;
27670;SDS011;15077;49.704;9.908;2023-07-20T14:35:12;1.85;;;0.90;;
27670;SDS011;15077;49.704;9.908;2023-07-20T14:37:40;1.15;;;0.82;;
27670;SDS011;15077;49.704;9.908;2023-07-20T14:40:06;0.80;;;0.60;;
27670;SDS011;15077;49.704;9.908;2023-07-20T14:42:33;0.88;;;0.63;;
27670;SDS011;15077;49.704;9.908;2023-07-20T14:44:59;1.60;;;0.60;;
27670;SDS011;15077;49.704;9.908;2023-07-20T14:47:24;1.73;;;0.70;;
27670;SDS011;15077;49.704;9.908;2023-07-20T14:49:50;1.02;;;0.60;;
27670;SDS011;15077;49.704;9.908;2023-07-20T14:52:16;0.90;;;0.70;;
27670;SDS011;15077;49.704;9.908;2023-07-20T14:54:42;1.42;;;0.75;;
27670;SDS011;15077;49.704;9.908;2023-07-20T14:57:16;1.63;;;0.93;;
27670;SDS011;15077;49.704;9.908;2023-07-20T14:59:41;1.30;;;0.90;;
27670;SDS011;15077;49.704;9.908;2023-07-20T15:02:09;1.67;;;0.82;;
27670;SDS011;15077;49.704;9.908;2023-07-20T15:05:45;1.20;;;0.63;;
27670;SDS011;15077;49.704;9.908;2023-07-20T15:08:32;0.90;;;0.70;;
27670;SDS011;15077;49.704;9.908;2023-07-20T15:11:10;0.57;;;0.57;;
27670;SDS011;15077;49.704;9.908;2023-07-20T15:14:14;0.80;;;0.60;;
27670;SDS011;15077;49.704;9.908;2023-07-20T15:16:41;1.30;;;0.70;;